sensor_id;sensor_type;location;lat;lon;timestamp;P1;durP1;ratioP1;P2;durP2;ratioP2
19653;SDS011;9975;48.046;7.804;2023-01-01T01:57:10;1.50;;;1.40;;
19653;SDS011;9975;48.046;7.804;2023-01-01T01:59:38;1.60;;;1.40;;
19653;SDS011;9975;48.046;7.804;2023-01-01T02:02:08;3.63;;;1.70;;
19653;SDS011;9975;48.046;7.804;2023-01-01T02:04:56;2.17;;;1.67;;
19653;SDS011;9975;48.046;7.804;2023-01-01T02:07:23;2.87;;;1.90;;
19653;SDS011;9975;48.046;7.804;2023-01-01T02:09:50;2.00;;;1.40;;
19653;SDS011;9975;48.046;7.804;2023-01-01T02:12:17;2.10;;;1.63;;
19653;SDS011;9975;48.046;7.804;2023-01-01T02:14:42;2.80;;;1.80;;
19653;SDS011;9975;48.046;7.804;2023-01-01T02:17:09;2.63;;;1.60;;
19653;SDS011;9975;48.046;7.804;2023-01-01T02:27:59;2.27;;;1.40;;
19653;SDS011;9975;48.046;7.804;2023-01-01T02:30:31;3.03;;;2.03;;
19653;SDS011;9975;48.046;7.804;2023-01-01T02:33:04;4.00;;;2.00;;
19653;SDS011;9975;48.046;7.804;2023-01-01T02:35:38;3.30;;;2.13;;
19653;SDS011;9975;48.046;7.804;2023-01-01T02:38:28;5.60;;;2.00;;
19653;SDS011;9975;48.046;7.804;2023-01-01T02:41:10;2.97;;;1.97;;
19653;SDS011;9975;48.046;7.804;2023-01-01T02:43:40;2.60;;;2.00;;
19653;SDS011;9975;48.046;7.804;2023-01-01T02:46:07;3.87;;;2.50;;
19653;SDS011;9975;48.046;7.804;2023-01-01T02:48:44;2.53;;;1.70;;
19653;SDS011;9975;48.046;7.804;2023-01-01T02:56:57;2.93;;;1.80;;
19653;SDS011;9975;48.046;7.804;2023-01-01T02:59:42;3.80;;;1.93;;
19653;SDS011;9975;48.046;7.804;2023-01-01T03:02:41;2.90;;;1.70;;
19653;SDS011;9975;48.046;7.804;2023-01-01T03:08:39;1.80;;;1.70;;
19653;SDS011;9975;48.046;7.804;2023-01-01T03:11:14;1.90;;;1.60;;
19653;SDS011;9975;48.046;7.804;2023-01-01T03:14:00;2.27;;;1.53;;
19653;SDS011;9975;48.046;7.804;2023-01-01T03:16:29;2.77;;;2.10;;
19653;SDS011;9975;48.046;7.804;2023-01-01T03:19:11;2.80;;;2.60;;
19653;SDS011;9975;48.046;7.804;2023-01-01T03:24:37;2.17;;;1.97;;
19653;SDS011;9975;48.046;7.804;2023-01-01T03:27:09;2.30;;;1.97;;
19653;SDS011;9975;48.046;7.804;2023-01-01T03:29:50;1.90;;;1.70;;
19653;SDS011;9975;48.046;7.804;2023-01-01T03:32:19;2.93;;;1.87;;
19653;SDS011;9975;48.046;7.804;2023-01-01T03:35:09;4.20;;;1.70;;
19653;SDS011;9975;48.046;7.804;2023-01-01T03:37:36;3.50;;;1.60;;
19653;SDS011;9975;48.046;7.804;2023-01-01T03:40:02;3.90;;;1.77;;
19653;SDS011;9975;48.046;7.804;2023-01-01T03:42:42;2.30;;;2.10;;
19653;SDS011;9975;48.046;7.804;2023-01-01T03:45:24;4.53;;;1.97;;
19653;SDS011;9975;48.046;7.804;2023-01-01T03:47:54;3.20;;;1.83;;
19653;SDS011;9975;48.046;7.804;2023-01-01T03:50:20;4.17;;;2.07;;
19653;SDS011;9975;48.046;7.804;2023-01-01T03:55:44;2.40;;;1.73;;
19653;SDS011;9975;48.046;7.804;2023-01-01T03:58:23;2.63;;;1.70;;
19653;SDS011;9975;48.046;7.804;2023-01-01T04:00:55;2.70;;;1.37;;
19653;SDS011;9975;48.046;7.804;2023-01-01T04:03:28;6.00;;;1.90;;
19653;SDS011;9975;48.046;7.804;2023-01-01T04:05:56;1.80;;;1.53;;
19653;SDS011;9975;48.046;7.804;2023-01-01T04:08:22;1.60;;;1.50;;
19653;SDS011;9975;48.046;7.804;2023-01-01T04:10:49;3.50;;;1.80;;
19653;SDS011;9975;48.046;7.804;2023-01-01T04:13:18;4.07;;;1.60;;
19653;SDS011;9975;48.046;7.804;2023-01-01T04:15:44;2.50;;;1.60;;
19653;SDS011;9975;48.046;7.804;2023-01-01T04:18:10;3.70;;;1.30;;
19653;SDS011;9975;48.046;7.804;2023-01-01T04:20:35;2.97;;;2.00;;
19653;SDS011;9975;48.046;7.804;2023-01-01T04:23:01;2.67;;;1.87;;
19653;SDS011;9975;48.046;7.804;2023-01-01T04:25:27;1.20;;;1.00;;
19653;SDS011;9975;48.046;7.804;2023-01-01T04:27:53;1.30;;;1.20;;
19653;SDS011;9975;48.046;7.804;2023-01-01T04:30:19;2.23;;;1.50;;
19653;SDS011;9975;48.046;7.804;2023-01-01T04:32:44;1.23;;;1.13;;
19653;SDS011;9975;48.046;7.804;2023-01-01T04:35:10;2.37;;;1.80;;
19653;SDS011;9975;48.046;7.804;2023-01-01T04:37:37;3.03;;;1.60;;
19653;SDS011;9975;48.046;7.804;2023-01-01T04:40:04;1.33;;;1.23;;
19653;SDS011;9975;48.046;7.804;2023-01-01T04:42:31;2.43;;;1.13;;
19653;SDS011;9975;48.046;7.804;2023-01-01T04:44:57;7.07;;;1.43;;
19653;SDS011;9975;48.046;7.804;2023-01-01T04:47:22;2.07;;;0.83;;
19653;SDS011;9975;48.046;7.804;2023-01-01T04:49:50;1.10;;;1.03;;
19653;SDS011;9975;48.046;7.804;2023-01-01T04:52:16;6.20;;;1.07;;
19653;SDS011;9975;48.046;7.804;2023-01-01T04:54:42;2.90;;;1.50;;
19653;SDS011;9975;48.046;7.804;2023-01-01T04:57:08;1.67;;;1.17;;
19653;SDS011;9975;48.046;7.804;2023-01-01T04:59:33;1.40;;;0.87;;
19653;SDS011;9975;48.046;7.804;2023-01-01T05:01:59;1.23;;;1.13;;
19653;SDS011;9975;48.046;7.804;2023-01-01T05:04:24;1.20;;;1.10;;
19653;SDS011;9975;48.046;7.804;2023-01-01T05:06:50;1.80;;;1.10;;
19653;SDS011;9975;48.046;7.804;2023-01-01T05:09:16;4.20;;;1.50;;
19653;SDS011;9975;48.046;7.804;2023-01-01T05:11:41;1.57;;;0.93;;
19653;SDS011;9975;48.046;7.804;2023-01-01T05:14:07;1.97;;;1.27;;
19653;SDS011;9975;48.046;7.804;2023-01-01T05:16:33;1.90;;;1.77;;
19653;SDS011;9975;48.046;7.804;2023-01-01T05:19:00;3.17;;;1.07;;
19653;SDS011;9975;48.046;7.804;2023-01-01T05:21:28;5.37;;;1.30;;
19653;SDS011;9975;48.046;7.804;2023-01-01T05:24:00;1.43;;;0.90;;
19653;SDS011;9975;48.046;7.804;2023-01-01T05:26:30;3.40;;;2.10;;
19653;SDS011;9975;48.046;7.804;2023-01-01T05:28:58;2.73;;;1.77;;
19653;SDS011;9975;48.046;7.804;2023-01-01T05:31:26;1.40;;;1.30;;
19653;SDS011;9975;48.046;7.804;2023-01-01T05:33:53;1.50;;;1.40;;
19653;SDS011;9975;48.046;7.804;2023-01-01T05:36:20;3.30;;;1.80;;
19653;SDS011;9975;48.046;7.804;2023-01-01T05:38:50;3.03;;;1.30;;
19653;SDS011;9975;48.046;7.804;2023-01-01T05:41:16;2.00;;;1.57;;
19653;SDS011;9975;48.046;7.804;2023-01-01T05:43:43;2.40;;;1.20;;
19653;SDS011;9975;48.046;7.804;2023-01-01T05:46:10;2.10;;;1.40;;
19653;SDS011;9975;48.046;7.804;2023-01-01T05:48:38;1.90;;;1.63;;
19653;SDS011;9975;48.046;7.804;2023-01-01T05:51:05;8.53;;;1.40;;
19653;SDS011;9975;48.046;7.804;2023-01-01T05:53:32;3.70;;;1.80;;
19653;SDS011;9975;48.046;7.804;2023-01-01T05:55:58;1.97;;;1.60;;
19653;SDS011;9975;48.046;7.804;2023-01-01T05:58:25;2.43;;;1.87;;
19653;SDS011;9975;48.046;7.804;2023-01-01T06:00:51;2.50;;;1.80;;
19653;SDS011;9975;48.046;7.804;2023-01-01T06:03:17;1.90;;;1.27;;
19653;SDS011;9975;48.046;7.804;2023-01-01T06:05:43;2.30;;;1.73;;
19653;SDS011;9975;48.046;7.804;2023-01-01T06:08:09;2.90;;;1.60;;
19653;SDS011;9975;48.046;7.804;2023-01-01T06:10:34;2.70;;;1.63;;
19653;SDS011;9975;48.046;7.804;2023-01-01T06:13:00;3.43;;;1.97;;
19653;SDS011;9975;48.046;7.804;2023-01-01T06:15:26;2.23;;;1.50;;
19653;SDS011;9975;48.046;7.804;2023-01-01T06:17:52;2.70;;;2.50;;
19653;SDS011;9975;48.046;7.804;2023-01-01T06:20:18;3.13;;;1.60;;
19653;SDS011;9975;48.046;7.804;2023-01-01T06:22:43;4.57;;;2.50;;
19653;SDS011;9975;48.046;7.804;2023-01-01T06:25:10;3.17;;;1.90;;
19653;SDS011;9975;48.046;7.804;2023-01-01T06:27:35;4.93;;;2.30;;
19653;SDS011;9975;48.046;7.804;2023-01-01T06:30:02;2.23;;;2.00;;
19653;SDS011;9975;48.046;7.804;2023-01-01T06:32:29;3.80;;;1.97;;
19653;SDS011;9975;48.046;7.804;2023-01-01T06:34:54;2.50;;;1.67;;
19653;SDS011;9975;48.046;7.804;2023-01-01T06:37:20;3.97;;;2.40;;
19653;SDS011;9975;48.046;7.804;2023-01-01T06:39:54;3.00;;;2.53;;
19653;SDS011;9975;48.046;7.804;2023-01-01T06:42:20;3.70;;;2.70;;
19653;SDS011;9975;48.046;7.804;2023-01-01T06:44:45;8.40;;;2.93;;
19653;SDS011;9975;48.046;7.804;2023-01-01T06:47:11;6.13;;;3.03;;
19653;SDS011;9975;48.046;7.804;2023-01-01T06:49:37;3.77;;;2.90;;
19653;SDS011;9975;48.046;7.804;2023-01-01T06:52:02;3.03;;;2.37;;
19653;SDS011;9975;48.046;7.804;2023-01-01T06:54:28;3.80;;;2.50;;
19653;SDS011;9975;48.046;7.804;2023-01-01T06:59:38;3.40;;;2.20;;
19653;SDS011;9975;48.046;7.804;2023-01-01T07:02:03;4.10;;;1.87;;
19653;SDS011;9975;48.046;7.804;2023-01-01T07:04:29;6.67;;;4.90;;
19653;SDS011;9975;48.046;7.804;2023-01-01T07:06:55;7.20;;;2.97;;
19653;SDS011;9975;48.046;7.804;2023-01-01T07:09:20;4.57;;;2.10;;
19653;SDS011;9975;48.046;7.804;2023-01-01T07:11:46;2.47;;;2.17;;
19653;SDS011;9975;48.046;7.804;2023-01-01T07:14:11;3.57;;;2.07;;
19653;SDS011;9975;48.046;7.804;2023-01-01T07:16:37;3.70;;;2.30;;
19653;SDS011;9975;48.046;7.804;2023-01-01T07:19:02;2.63;;;1.90;;
19653;SDS011;9975;48.046;7.804;2023-01-01T07:21:32;3.87;;;1.83;;
19653;SDS011;9975;48.046;7.804;2023-01-01T07:24:04;4.30;;;1.73;;
19653;SDS011;9975;48.046;7.804;2023-01-01T07:26:31;2.60;;;1.77;;
19653;SDS011;9975;48.046;7.804;2023-01-01T07:28:57;2.00;;;1.20;;
19653;SDS011;9975;48.046;7.804;2023-01-01T07:31:23;2.07;;;1.80;;
19653;SDS011;9975;48.046;7.804;2023-01-01T07:33:49;2.20;;;1.57;;
19653;SDS011;9975;48.046;7.804;2023-01-01T07:36:14;3.57;;;1.40;;
19653;SDS011;9975;48.046;7.804;2023-01-01T07:38:40;7.10;;;2.10;;
19653;SDS011;9975;48.046;7.804;2023-01-01T07:41:06;3.23;;;1.70;;
19653;SDS011;9975;48.046;7.804;2023-01-01T07:43:32;2.70;;;2.20;;
19653;SDS011;9975;48.046;7.804;2023-01-01T07:45:58;5.50;;;3.10;;
19653;SDS011;9975;48.046;7.804;2023-01-01T07:48:24;3.43;;;2.10;;
19653;SDS011;9975;48.046;7.804;2023-01-01T07:50:50;4.57;;;2.73;;
19653;SDS011;9975;48.046;7.804;2023-01-01T07:53:15;2.50;;;1.80;;
19653;SDS011;9975;48.046;7.804;2023-01-01T07:55:41;4.00;;;2.47;;
19653;SDS011;9975;48.046;7.804;2023-01-01T07:58:07;4.40;;;2.40;;
19653;SDS011;9975;48.046;7.804;2023-01-01T08:00:35;4.67;;;2.87;;
19653;SDS011;9975;48.046;7.804;2023-01-01T08:03:00;5.90;;;3.10;;
19653;SDS011;9975;48.046;7.804;2023-01-01T08:05:26;5.33;;;3.43;;
19653;SDS011;9975;48.046;7.804;2023-01-01T08:07:52;8.03;;;3.50;;
19653;SDS011;9975;48.046;7.804;2023-01-01T08:10:18;6.07;;;4.00;;
19653;SDS011;9975;48.046;7.804;2023-01-01T08:12:44;6.70;;;5.50;;
19653;SDS011;9975;48.046;7.804;2023-01-01T08:15:10;7.00;;;4.00;;
19653;SDS011;9975;48.046;7.804;2023-01-01T08:17:36;4.97;;;3.17;;
19653;SDS011;9975;48.046;7.804;2023-01-01T08:20:05;4.90;;;3.63;;
19653;SDS011;9975;48.046;7.804;2023-01-01T08:22:31;4.50;;;2.87;;
19653;SDS011;9975;48.046;7.804;2023-01-01T08:24:57;3.97;;;2.80;;
19653;SDS011;9975;48.046;7.804;2023-01-01T08:27:22;4.60;;;3.10;;
19653;SDS011;9975;48.046;7.804;2023-01-01T08:29:48;7.00;;;3.87;;
19653;SDS011;9975;48.046;7.804;2023-01-01T08:32:14;8.50;;;3.63;;
19653;SDS011;9975;48.046;7.804;2023-01-01T08:34:39;6.40;;;4.33;;
19653;SDS011;9975;48.046;7.804;2023-01-01T08:37:06;4.90;;;3.57;;
19653;SDS011;9975;48.046;7.804;2023-01-01T08:39:35;5.13;;;3.30;;
19653;SDS011;9975;48.046;7.804;2023-01-01T08:42:00;5.63;;;3.10;;
19653;SDS011;9975;48.046;7.804;2023-01-01T08:44:26;7.10;;;3.50;;
19653;SDS011;9975;48.046;7.804;2023-01-01T08:46:51;5.67;;;3.60;;
19653;SDS011;9975;48.046;7.804;2023-01-01T08:49:17;4.40;;;3.07;;
19653;SDS011;9975;48.046;7.804;2023-01-01T08:51:43;5.73;;;3.23;;
19653;SDS011;9975;48.046;7.804;2023-01-01T08:54:09;6.13;;;4.23;;
19653;SDS011;9975;48.046;7.804;2023-01-01T08:56:34;5.50;;;3.77;;
19653;SDS011;9975;48.046;7.804;2023-01-01T08:59:01;6.90;;;3.90;;
19653;SDS011;9975;48.046;7.804;2023-01-01T09:01:27;6.73;;;4.00;;
19653;SDS011;9975;48.046;7.804;2023-01-01T09:03:53;4.33;;;3.27;;
19653;SDS011;9975;48.046;7.804;2023-01-01T09:06:18;5.87;;;2.80;;
19653;SDS011;9975;48.046;7.804;2023-01-01T09:08:44;4.93;;;2.70;;
19653;SDS011;9975;48.046;7.804;2023-01-01T09:11:25;5.67;;;2.83;;
19653;SDS011;9975;48.046;7.804;2023-01-01T09:13:52;10.30;;;2.90;;
19653;SDS011;9975;48.046;7.804;2023-01-01T09:16:18;6.87;;;3.40;;
19653;SDS011;9975;48.046;7.804;2023-01-01T09:18:45;6.47;;;3.40;;
19653;SDS011;9975;48.046;7.804;2023-01-01T09:21:11;3.30;;;3.00;;
19653;SDS011;9975;48.046;7.804;2023-01-01T09:23:37;6.27;;;2.67;;
19653;SDS011;9975;48.046;7.804;2023-01-01T09:26:03;6.13;;;3.23;;
19653;SDS011;9975;48.046;7.804;2023-01-01T09:28:29;7.70;;;3.40;;
19653;SDS011;9975;48.046;7.804;2023-01-01T09:30:55;6.40;;;2.47;;
19653;SDS011;9975;48.046;7.804;2023-01-01T09:33:21;8.00;;;3.07;;
19653;SDS011;9975;48.046;7.804;2023-01-01T09:35:46;4.83;;;3.90;;
19653;SDS011;9975;48.046;7.804;2023-01-01T09:38:12;4.67;;;2.37;;
19653;SDS011;9975;48.046;7.804;2023-01-01T09:46:05;4.80;;;2.63;;
19653;SDS011;9975;48.046;7.804;2023-01-01T09:48:32;4.43;;;2.37;;
19653;SDS011;9975;48.046;7.804;2023-01-01T09:51:04;3.67;;;2.37;;
19653;SDS011;9975;48.046;7.804;2023-01-01T09:53:39;4.33;;;1.90;;
19653;SDS011;9975;48.046;7.804;2023-01-01T09:56:26;3.20;;;1.87;;
19653;SDS011;9975;48.046;7.804;2023-01-01T09:58:55;3.57;;;1.97;;
19653;SDS011;9975;48.046;7.804;2023-01-01T10:15:30;4.63;;;2.00;;
19653;SDS011;9975;48.046;7.804;2023-01-01T10:18:02;4.40;;;1.60;;
19653;SDS011;9975;48.046;7.804;2023-01-01T10:20:47;4.50;;;2.00;;
19653;SDS011;9975;48.046;7.804;2023-01-01T10:23:24;1.87;;;1.73;;
19653;SDS011;9975;48.046;7.804;2023-01-01T10:25:52;3.67;;;2.13;;
19653;SDS011;9975;48.046;7.804;2023-01-01T10:28:23;2.17;;;1.87;;
19653;SDS011;9975;48.046;7.804;2023-01-01T10:31:16;2.70;;;1.63;;
19653;SDS011;9975;48.046;7.804;2023-01-01T10:33:44;9.57;;;4.77;;
19653;SDS011;9975;48.046;7.804;2023-01-01T10:36:12;5.97;;;2.93;;
19653;SDS011;9975;48.046;7.804;2023-01-01T10:38:41;2.13;;;1.73;;
19653;SDS011;9975;48.046;7.804;2023-01-01T10:41:10;3.40;;;2.13;;
19653;SDS011;9975;48.046;7.804;2023-01-01T10:43:36;2.93;;;1.47;;
19653;SDS011;9975;48.046;7.804;2023-01-01T10:46:02;1.47;;;1.30;;
19653;SDS011;9975;48.046;7.804;2023-01-01T10:48:30;4.60;;;1.87;;
19653;SDS011;9975;48.046;7.804;2023-01-01T10:50:57;1.33;;;1.07;;
19653;SDS011;9975;48.046;7.804;2023-01-01T10:56:03;2.90;;;1.30;;
19653;SDS011;9975;48.046;7.804;2023-01-01T10:58:40;5.87;;;2.33;;
19653;SDS011;9975;48.046;7.804;2023-01-01T11:03:51;3.50;;;1.40;;
19653;SDS011;9975;48.046;7.804;2023-01-01T11:06:32;2.40;;;1.27;;
19653;SDS011;9975;48.046;7.804;2023-01-01T11:09:00;2.33;;;1.33;;
19653;SDS011;9975;48.046;7.804;2023-01-01T11:14:13;2.53;;;1.40;;
19653;SDS011;9975;48.046;7.804;2023-01-01T11:16:49;2.37;;;1.57;;
19653;SDS011;9975;48.046;7.804;2023-01-01T11:19:23;3.03;;;2.00;;
19653;SDS011;9975;48.046;7.804;2023-01-01T11:21:52;4.43;;;2.53;;
19653;SDS011;9975;48.046;7.804;2023-01-01T11:24:19;5.10;;;1.80;;
19653;SDS011;9975;48.046;7.804;2023-01-01T11:26:45;4.03;;;1.77;;
19653;SDS011;9975;48.046;7.804;2023-01-01T11:29:33;2.87;;;1.47;;
19653;SDS011;9975;48.046;7.804;2023-01-01T11:31:57;1.43;;;1.30;;
19653;SDS011;9975;48.046;7.804;2023-01-01T11:34:31;2.20;;;1.30;;
19653;SDS011;9975;48.046;7.804;2023-01-01T11:39:58;4.30;;;1.57;;
19653;SDS011;9975;48.046;7.804;2023-01-01T11:42:34;3.20;;;1.50;;
19653;SDS011;9975;48.046;7.804;2023-01-01T11:47:48;6.00;;;1.60;;
19653;SDS011;9975;48.046;7.804;2023-01-01T11:52:56;3.03;;;1.57;;
19653;SDS011;9975;48.046;7.804;2023-01-01T11:55:41;3.07;;;1.97;;
19653;SDS011;9975;48.046;7.804;2023-01-01T11:58:17;2.97;;;1.83;;
19653;SDS011;9975;48.046;7.804;2023-01-01T12:01:02;3.23;;;1.63;;
19653;SDS011;9975;48.046;7.804;2023-01-01T12:04:03;3.90;;;1.87;;
19653;SDS011;9975;48.046;7.804;2023-01-01T12:06:48;3.37;;;1.90;;
19653;SDS011;9975;48.046;7.804;2023-01-01T12:12:17;4.80;;;1.60;;
19653;SDS011;9975;48.046;7.804;2023-01-01T12:15:00;4.70;;;1.53;;
19653;SDS011;9975;48.046;7.804;2023-01-01T12:17:38;1.57;;;1.37;;
19653;SDS011;9975;48.046;7.804;2023-01-01T12:22:54;2.30;;;1.57;;
19653;SDS011;9975;48.046;7.804;2023-01-01T12:25:22;4.63;;;1.90;;
19653;SDS011;9975;48.046;7.804;2023-01-01T12:36:51;2.10;;;1.60;;
19653;SDS011;9975;48.046;7.804;2023-01-01T12:42:46;6.43;;;1.93;;
19653;SDS011;9975;48.046;7.804;2023-01-01T12:53:33;3.07;;;2.00;;
19653;SDS011;9975;48.046;7.804;2023-01-01T12:56:31;1.90;;;1.50;;
19653;SDS011;9975;48.046;7.804;2023-01-01T12:59:08;2.37;;;1.40;;
19653;SDS011;9975;48.046;7.804;2023-01-01T13:01:42;2.30;;;1.20;;
19653;SDS011;9975;48.046;7.804;2023-01-01T13:04:17;3.57;;;1.63;;
19653;SDS011;9975;48.046;7.804;2023-01-01T13:09:20;2.10;;;1.73;;
19653;SDS011;9975;48.046;7.804;2023-01-01T13:11:55;1.80;;;1.67;;
19653;SDS011;9975;48.046;7.804;2023-01-01T13:14:29;5.20;;;1.43;;
19653;SDS011;9975;48.046;7.804;2023-01-01T13:17:01;3.20;;;1.80;;
19653;SDS011;9975;48.046;7.804;2023-01-01T13:19:31;5.07;;;1.87;;
19653;SDS011;9975;48.046;7.804;2023-01-01T13:21:58;5.10;;;1.57;;
19653;SDS011;9975;48.046;7.804;2023-01-01T13:25:01;4.10;;;1.90;;
19653;SDS011;9975;48.046;7.804;2023-01-01T13:36:07;4.50;;;1.53;;
19653;SDS011;9975;48.046;7.804;2023-01-01T13:38:47;2.77;;;1.33;;
19653;SDS011;9975;48.046;7.804;2023-01-01T13:41:32;2.23;;;1.97;;
19653;SDS011;9975;48.046;7.804;2023-01-01T13:44:20;2.27;;;1.60;;
19653;SDS011;9975;48.046;7.804;2023-01-01T13:46:56;45.33;;;3.23;;
19653;SDS011;9975;48.046;7.804;2023-01-01T13:52:29;5.13;;;2.10;;
19653;SDS011;9975;48.046;7.804;2023-01-01T13:58:07;4.93;;;1.70;;
19653;SDS011;9975;48.046;7.804;2023-01-01T14:03:29;3.20;;;1.90;;
19653;SDS011;9975;48.046;7.804;2023-01-01T14:06:03;3.13;;;1.87;;
19653;SDS011;9975;48.046;7.804;2023-01-01T14:08:36;3.83;;;1.97;;
19653;SDS011;9975;48.046;7.804;2023-01-01T14:11:02;2.40;;;1.60;;
19653;SDS011;9975;48.046;7.804;2023-01-01T14:13:45;5.10;;;2.40;;
19653;SDS011;9975;48.046;7.804;2023-01-01T14:16:11;6.23;;;2.07;;
19653;SDS011;9975;48.046;7.804;2023-01-01T14:21:19;5.20;;;1.93;;
19653;SDS011;9975;48.046;7.804;2023-01-01T14:23:50;3.50;;;2.23;;
19653;SDS011;9975;48.046;7.804;2023-01-01T14:26:22;6.10;;;2.33;;
19653;SDS011;9975;48.046;7.804;2023-01-01T14:28:56;9.30;;;2.30;;
19653;SDS011;9975;48.046;7.804;2023-01-01T14:31:30;3.43;;;2.00;;
19653;SDS011;9975;48.046;7.804;2023-01-01T14:34:11;1.73;;;1.57;;
19653;SDS011;9975;48.046;7.804;2023-01-01T14:36:57;4.70;;;1.80;;
19653;SDS011;9975;48.046;7.804;2023-01-01T14:39:28;2.90;;;2.03;;
19653;SDS011;9975;48.046;7.804;2023-01-01T14:41:56;4.23;;;1.77;;
19653;SDS011;9975;48.046;7.804;2023-01-01T14:44:27;4.43;;;1.83;;
19653;SDS011;9975;48.046;7.804;2023-01-01T14:47:15;3.10;;;1.73;;
19653;SDS011;9975;48.046;7.804;2023-01-01T14:49:59;4.73;;;1.83;;
19653;SDS011;9975;48.046;7.804;2023-01-01T14:52:36;4.93;;;1.53;;
19653;SDS011;9975;48.046;7.804;2023-01-01T14:55:03;3.03;;;1.40;;
19653;SDS011;9975;48.046;7.804;2023-01-01T14:57:33;2.40;;;1.40;;
19653;SDS011;9975;48.046;7.804;2023-01-01T15:00:01;1.70;;;1.60;;
19653;SDS011;9975;48.046;7.804;2023-01-01T15:02:37;2.73;;;2.00;;
19653;SDS011;9975;48.046;7.804;2023-01-01T15:07:57;2.37;;;1.47;;
19653;SDS011;9975;48.046;7.804;2023-01-01T15:10:28;4.37;;;2.20;;
19653;SDS011;9975;48.046;7.804;2023-01-01T15:12:56;3.50;;;1.70;;
19653;SDS011;9975;48.046;7.804;2023-01-01T15:16:22;3.57;;;1.67;;
19653;SDS011;9975;48.046;7.804;2023-01-01T15:21:16;4.30;;;2.10;;
19653;SDS011;9975;48.046;7.804;2023-01-01T15:23:52;8.40;;;2.47;;
19653;SDS011;9975;48.046;7.804;2023-01-01T15:26:28;3.87;;;1.77;;
19653;SDS011;9975;48.046;7.804;2023-01-01T15:29:09;3.17;;;2.20;;
19653;SDS011;9975;48.046;7.804;2023-01-01T15:31:40;2.30;;;1.60;;
19653;SDS011;9975;48.046;7.804;2023-01-01T15:34:16;3.90;;;1.70;;
19653;SDS011;9975;48.046;7.804;2023-01-01T15:36:54;3.47;;;1.90;;
19653;SDS011;9975;48.046;7.804;2023-01-01T15:39:28;2.90;;;1.73;;
19653;SDS011;9975;48.046;7.804;2023-01-01T15:41:55;5.80;;;1.87;;
19653;SDS011;9975;48.046;7.804;2023-01-01T15:44:25;6.13;;;3.70;;
19653;SDS011;9975;48.046;7.804;2023-01-01T15:47:12;6.00;;;2.37;;
19653;SDS011;9975;48.046;7.804;2023-01-01T15:49:40;4.20;;;1.60;;
19653;SDS011;9975;48.046;7.804;2023-01-01T15:52:12;6.20;;;2.30;;
19653;SDS011;9975;48.046;7.804;2023-01-01T15:54:45;5.13;;;2.03;;
19653;SDS011;9975;48.046;7.804;2023-01-01T15:57:16;5.97;;;1.93;;
19653;SDS011;9975;48.046;7.804;2023-01-01T15:59:44;4.03;;;2.43;;
19653;SDS011;9975;48.046;7.804;2023-01-01T16:02:12;10.47;;;3.23;;
19653;SDS011;9975;48.046;7.804;2023-01-01T16:04:38;5.00;;;2.27;;
19653;SDS011;9975;48.046;7.804;2023-01-01T16:07:13;3.63;;;1.80;;
19653;SDS011;9975;48.046;7.804;2023-01-01T16:09:45;4.13;;;2.23;;
19653;SDS011;9975;48.046;7.804;2023-01-01T16:12:11;4.43;;;2.07;;
19653;SDS011;9975;48.046;7.804;2023-01-01T16:14:37;2.60;;;1.63;;
19653;SDS011;9975;48.046;7.804;2023-01-01T16:17:02;4.40;;;2.60;;
19653;SDS011;9975;48.046;7.804;2023-01-01T16:19:29;5.67;;;2.40;;
19653;SDS011;9975;48.046;7.804;2023-01-01T16:21:55;17.90;;;10.80;;
19653;SDS011;9975;48.046;7.804;2023-01-01T16:24:22;5.30;;;2.90;;
19653;SDS011;9975;48.046;7.804;2023-01-01T16:26:48;7.13;;;3.00;;
19653;SDS011;9975;48.046;7.804;2023-01-01T16:29:14;6.90;;;2.77;;
19653;SDS011;9975;48.046;7.804;2023-01-01T16:31:41;14.63;;;6.93;;
19653;SDS011;9975;48.046;7.804;2023-01-01T16:34:09;9.77;;;5.20;;
19653;SDS011;9975;48.046;7.804;2023-01-01T16:36:36;8.57;;;4.80;;
19653;SDS011;9975;48.046;7.804;2023-01-01T16:39:02;8.77;;;6.17;;
19653;SDS011;9975;48.046;7.804;2023-01-01T16:41:28;7.17;;;3.57;;
19653;SDS011;9975;48.046;7.804;2023-01-01T16:43:54;6.80;;;3.57;;
19653;SDS011;9975;48.046;7.804;2023-01-01T16:46:20;10.37;;;3.37;;
19653;SDS011;9975;48.046;7.804;2023-01-01T16:48:45;4.37;;;2.57;;
19653;SDS011;9975;48.046;7.804;2023-01-01T16:51:14;7.90;;;2.93;;
19653;SDS011;9975;48.046;7.804;2023-01-01T16:53:42;5.10;;;2.97;;
19653;SDS011;9975;48.046;7.804;2023-01-01T16:56:09;4.93;;;2.50;;
19653;SDS011;9975;48.046;7.804;2023-01-01T16:58:35;11.50;;;3.80;;
19653;SDS011;9975;48.046;7.804;2023-01-01T17:01:01;3.20;;;2.37;;
19653;SDS011;9975;48.046;7.804;2023-01-01T17:03:27;3.83;;;2.43;;
19653;SDS011;9975;48.046;7.804;2023-01-01T17:05:53;5.20;;;2.37;;
19653;SDS011;9975;48.046;7.804;2023-01-01T17:08:19;3.40;;;3.10;;
19653;SDS011;9975;48.046;7.804;2023-01-01T17:10:44;4.77;;;2.80;;
19653;SDS011;9975;48.046;7.804;2023-01-01T17:13:10;9.73;;;7.13;;
19653;SDS011;9975;48.046;7.804;2023-01-01T17:15:36;10.90;;;2.90;;
19653;SDS011;9975;48.046;7.804;2023-01-01T17:18:02;7.60;;;3.13;;
19653;SDS011;9975;48.046;7.804;2023-01-01T17:20:28;10.57;;;3.57;;
19653;SDS011;9975;48.046;7.804;2023-01-01T17:22:54;6.10;;;2.47;;
19653;SDS011;9975;48.046;7.804;2023-01-01T17:25:20;8.13;;;3.03;;
19653;SDS011;9975;48.046;7.804;2023-01-01T17:27:46;13.00;;;3.43;;
19653;SDS011;9975;48.046;7.804;2023-01-01T17:30:12;11.23;;;3.20;;
19653;SDS011;9975;48.046;7.804;2023-01-01T17:32:38;8.83;;;3.80;;
19653;SDS011;9975;48.046;7.804;2023-01-01T17:35:05;11.40;;;6.40;;
19653;SDS011;9975;48.046;7.804;2023-01-01T17:37:31;7.10;;;4.40;;
19653;SDS011;9975;48.046;7.804;2023-01-01T17:39:57;7.00;;;4.47;;
19653;SDS011;9975;48.046;7.804;2023-01-01T17:42:23;7.57;;;3.73;;
19653;SDS011;9975;48.046;7.804;2023-01-01T17:44:49;4.47;;;2.53;;
19653;SDS011;9975;48.046;7.804;2023-01-01T17:47:15;7.70;;;3.07;;
19653;SDS011;9975;48.046;7.804;2023-01-01T17:49:41;7.10;;;3.00;;
19653;SDS011;9975;48.046;7.804;2023-01-01T17:52:07;5.77;;;3.30;;
19653;SDS011;9975;48.046;7.804;2023-01-01T17:54:33;4.43;;;3.60;;
19653;SDS011;9975;48.046;7.804;2023-01-01T17:57:02;4.30;;;2.63;;
19653;SDS011;9975;48.046;7.804;2023-01-01T17:59:30;5.00;;;4.50;;
19653;SDS011;9975;48.046;7.804;2023-01-01T18:01:57;7.23;;;3.57;;
19653;SDS011;9975;48.046;7.804;2023-01-01T18:04:23;8.20;;;3.57;;
19653;SDS011;9975;48.046;7.804;2023-01-01T18:06:49;7.13;;;4.00;;
19653;SDS011;9975;48.046;7.804;2023-01-01T18:09:15;6.33;;;3.43;;
19653;SDS011;9975;48.046;7.804;2023-01-01T18:11:43;9.93;;;4.10;;
19653;SDS011;9975;48.046;7.804;2023-01-01T18:14:10;11.93;;;5.50;;
19653;SDS011;9975;48.046;7.804;2023-01-01T18:16:37;10.00;;;7.23;;
19653;SDS011;9975;48.046;7.804;2023-01-01T18:19:04;14.67;;;9.40;;
19653;SDS011;9975;48.046;7.804;2023-01-01T18:21:30;9.00;;;5.80;;
19653;SDS011;9975;48.046;7.804;2023-01-01T18:23:57;7.93;;;5.40;;
19653;SDS011;9975;48.046;7.804;2023-01-01T18:26:24;10.20;;;5.80;;
19653;SDS011;9975;48.046;7.804;2023-01-01T18:28:52;9.83;;;7.40;;
19653;SDS011;9975;48.046;7.804;2023-01-01T18:31:19;7.10;;;4.37;;
19653;SDS011;9975;48.046;7.804;2023-01-01T18:33:45;8.23;;;5.10;;
19653;SDS011;9975;48.046;7.804;2023-01-01T18:36:13;7.97;;;5.83;;
19653;SDS011;9975;48.046;7.804;2023-01-01T18:38:40;8.07;;;5.37;;
19653;SDS011;9975;48.046;7.804;2023-01-01T18:41:19;8.43;;;5.67;;
19653;SDS011;9975;48.046;7.804;2023-01-01T18:43:49;8.07;;;5.77;;
19653;SDS011;9975;48.046;7.804;2023-01-01T18:46:15;10.90;;;6.80;;
19653;SDS011;9975;48.046;7.804;2023-01-01T18:48:40;13.80;;;7.13;;
19653;SDS011;9975;48.046;7.804;2023-01-01T18:51:22;8.10;;;5.40;;
19653;SDS011;9975;48.046;7.804;2023-01-01T18:53:50;11.63;;;6.87;;
19653;SDS011;9975;48.046;7.804;2023-01-01T18:56:19;12.67;;;5.93;;
19653;SDS011;9975;48.046;7.804;2023-01-01T18:58:45;15.67;;;7.67;;
19653;SDS011;9975;48.046;7.804;2023-01-01T19:01:22;11.90;;;7.70;;
19653;SDS011;9975;48.046;7.804;2023-01-01T19:03:54;7.40;;;6.10;;
19653;SDS011;9975;48.046;7.804;2023-01-01T19:06:27;19.60;;;9.33;;
19653;SDS011;9975;48.046;7.804;2023-01-01T19:11:45;11.53;;;8.13;;